Time,TemperatureF,DewpointF,PressureIn,WindDirection,WindDirectionDegrees,WindSpeedMPH,WindSpeedGustMPH,Humidity,HourlyPrecipIn,Conditions,Clouds,dailyrainin,SoftwareType,DateUTC
2013-02-23 00:03:00,38.7,33.1,29.79,SSW,194,2.0,7.6,80,0.00,,,-99.99,FreeWX-Wi 1.01,2013-02-23 08:03:00,
2013-02-23 00:08:00,38.7,33.1,29.79,SSW,194,2.0,6.3,80,0.00,,,-99.99,FreeWX-Wi 1.01,2013-02-23 08:08:00,
2013-02-23 00:18:00,38.5,33.1,29.79,SSW,193,3.0,6.3,81,0.00,,,-99.99,FreeWX-Wi 1.01,2013-02-23 08:18:00,
2013-02-23 00:23:00,38.5,33.1,29.79,South,191,4.0,7.6,81,0.00,,,-99.99,FreeWX-Wi 1.01,2013-02-23 08:23:00,
2013-02-23 00:28:00,38.5,32.9,29.79,SSW,192,4.0,10.5,80,0.00,,,-99.99,FreeWX-Wi 1.01,2013-02-23 08:28:00,
2013-02-23 00:33:00,38.3,32.7,29.79,SSW,195,4.0,8.7,80,0.00,,,-99.99,FreeWX-Wi 1.01,2013-02-23 08:33:00,
2013-02-23 00:38:00,38.1,32.5,29.79,SSW,194,4.0,11.0,80,0.00,,,-99.99,FreeWX-Wi 1.01,2013-02-23 08:38:00,
2013-02-23 00:43:00,38.1,32.9,29.79,SSW,197,4.0,8.1,81,0.00,,,-99.99,FreeWX-Wi 1.01,2013-02-23 08:43:00,
2013-02-23 00:48:00,38.1,32.9,29.79,SSW,201,4.0,10.1,81,0.00,,,-99.99,FreeWX-Wi 1.01,2013-02-23 08:48:00,
2013-02-23 00:53:00,37.8,32.5,29.79,SSW,208,4.0,8.1,81,0.00,,,-99.99,FreeWX-Wi 1.01,2013-02-23 08:53:00,
2013-02-23 00:58:00,37.8,32.5,29.79,SSW,208,4.0,6.3,81,0.00,,,-99.99,FreeWX-Wi 1.01,2013-02-23 08:58:00,
2013-02-23 01:03:00,37.8,32.5,29.79,SSW,207,4.0,8.7,81,0.00,,,-99.99,FreeWX-Wi 1.01,2013-02-23 09:03:00,
2013-02-23 01:08:00,37.6,32.4,29.79,SSW,213,3.0,7.6,81,0.00,,,-99.99,FreeWX-Wi 1.01,2013-02-23 09:08:00,
2013-02-23 01:13:00,37.6,32.5,29.82,SSW,212,3.0,5.4,82,0.00,,,-99.99,FreeWX-Wi 1.01,2013-02-23 09:13:00,
2013-02-23 01:18:00,37.6,32.5,29.82,SSW,209,3.0,6.3,82,0.00,,,-99.99,FreeWX-Wi 1.01,2013-02-23 09:18:00,
2013-02-23 01:23:00,37.8,32.7,29.82,SSW,205,3.0,6.3,82,0.00,,,-99.99,FreeWX-Wi 1.01,2013-02-23 09:23:00,
2013-02-23 01:28:00,37.8,33.1,29.82,SSW,201,3.0,8.3,83,0.00,,,-99.99,FreeWX-Wi 1.01,2013-02-23 09:28:00,
2013-02-23 01:33:00,37.9,33.3,29.82,SSW,204,3.0,8.1,83,0.00,,,-99.99,FreeWX-Wi 1.01,2013-02-23 09:33:00,
2013-02-23 01:38:00,38.1,33.4,29.82,SSW,200,3.0,3.6,83,0.00,,,-99.99,FreeWX-Wi 1.01,2013-02-23 09:38:00,
2013-02-23 01:43:00,38.1,33.4,29.82,SSW,203,3.0,6.7,83,0.00,,,-99.99,FreeWX-Wi 1.01,2013-02-23 09:43:00,
2013-02-23 01:48:00,38.1,33.4,29.82,SSW,205,3.0,4.0,83,0.00,,,-99.99,FreeWX-Wi 1.01,2013-02-23 09:48:00,
2013-02-23 01:53:00,38.3,33.6,29.82,SSW,204,2.0,5.8,83,0.00,,,-99.99,FreeWX-Wi 1.01,2013-02-23 09:53:00,
2013-02-23 01:58:00,38.3,33.6,29.82,SSW,204,2.0,5.8,83,0.00,,,-99.99,FreeWX-Wi 1.01,2013-02-23 09:58:00,
2013-02-23 02:03:00,38.1,33.4,29.82,SSW,204,2.0,5.8,83,0.00,,,-99.99,FreeWX-Wi 1.01,2013-02-23 10:03:00,
2013-02-23 02:08:00,38.1,33.4,29.82,SSW,200,2.0,4.0,83,0.00,,,-99.99,FreeWX-Wi 1.01,2013-02-23 10:08:00,
2013-02-23 02:13:00,38.1,33.4,29.82,SSW,192,2.0,5.4,83,0.00,,,-99.99,FreeWX-Wi 1.01,2013-02-23 10:13:00,
2013-02-23 02:18:00,38.3,33.6,29.82,South,189,3.0,7.6,83,0.00,,,-99.99,FreeWX-Wi 1.01,2013-02-23 10:18:00,
2013-02-23 02:23:00,38.3,33.6,29.82,South,190,3.0,8.1,83,0.00,,,-99.99,FreeWX-Wi 1.01,2013-02-23 10:23:00,
2013-02-23 02:28:00,38.5,33.8,29.82,South,190,3.0,10.1,83,0.00,,,-99.99,FreeWX-Wi 1.01,2013-02-23 10:28:00,
2013-02-23 02:33:00,38.5,33.8,29.82,South,190,3.0,5.8,83,0.00,,,-99.99,FreeWX-Wi 1.01,2013-02-23 10:33:00,
2013-02-23 02:38:00,38.5,33.8,29.82,SSW,192,3.0,5.8,83,0.00,,,-99.99,FreeWX-Wi 1.01,2013-02-23 10:38:00,
2013-02-23 02:43:00,38.5,33.8,29.85,SSW,197,3.0,5.8,83,0.00,,,-99.99,FreeWX-Wi 1.01,2013-02-23 10:43:00,
2013-02-23 02:48:00,38.5,33.8,29.85,SSW,203,3.0,3.6,83,0.00,,,-99.99,FreeWX-Wi 1.01,2013-02-23 10:48:00,
2013-02-23 02:53:00,38.5,33.8,29.85,SSW,205,2.0,5.8,83,0.00,,,-99.99,FreeWX-Wi 1.01,2013-02-23 10:53:00,
2013-02-23 02:58:00,38.5,33.8,29.82,SSW,204,2.0,7.6,83,0.00,,,-99.99,FreeWX-Wi 1.01,2013-02-23 10:58:00,
2013-02-23 03:03:00,38.5,33.8,29.82,SSW,207,2.0,7.6,83,0.00,,,-99.99,FreeWX-Wi 1.01,2013-02-23 11:03:00,
2013-02-23 03:08:00,38.5,33.8,29.82,SSW,210,3.0,6.3,83,0.00,,,-99.99,FreeWX-Wi 1.01,2013-02-23 11:08:00,
2013-02-23 03:13:00,38.5,33.8,29.85,SW,214,2.0,5.4,83,0.00,,,-99.99,FreeWX-Wi 1.01,2013-02-23 11:13:00,
2013-02-23 03:18:00,38.5,33.8,29.85,SW,216,3.0,5.8,83,0.00,,,-99.99,FreeWX-Wi 1.01,2013-02-23 11:18:00,
2013-02-23 03:24:00,38.5,33.8,29.85,SW,218,3.0,5.4,83,0.00,,,-99.99,FreeWX-Wi 1.01,2013-02-23 11:24:00,
2013-02-23 03:29:00,38.5,33.8,29.85,SW,221,3.0,6.3,83,0.00,,,-99.99,FreeWX-Wi 1.01,2013-02-23 11:29:00,
2013-02-23 03:34:00,38.5,33.8,29.85,SW,219,3.0,7.6,83,0.00,,,-99.99,FreeWX-Wi 1.01,2013-02-23 11:34:00,
2013-02-23 03:39:00,38.5,33.8,29.85,SW,218,3.0,5.4,83,0.00,,,-99.99,FreeWX-Wi 1.01,2013-02-23 11:39:00,
2013-02-23 03:44:00,38.5,33.8,29.85,SSW,210,3.0,8.7,83,0.00,,,-99.99,FreeWX-Wi 1.01,2013-02-23 11:44:00,
2013-02-23 03:49:00,38.3,33.6,29.85,SSW,203,3.0,8.1,83,0.00,,,-99.99,FreeWX-Wi 1.01,2013-02-23 11:49:00,
2013-02-23 03:54:00,38.3,33.6,29.85,SSW,204,3.0,5.8,83,0.00,,,-99.99,FreeWX-Wi 1.01,2013-02-23 11:54:00,
2013-02-23 03:59:00,38.3,34.0,29.85,SSW,200,3.0,7.6,84,0.00,,,-99.99,FreeWX-Wi 1.01,2013-02-23 11:59:00,
2013-02-23 04:04:00,38.1,33.8,29.85,SSW,200,3.0,6.7,84,0.00,,,-99.99,FreeWX-Wi 1.01,2013-02-23 12:04:00,
2013-02-23 04:09:00,38.1,33.8,29.85,SSW,205,3.0,5.4,84,0.00,,,-99.99,FreeWX-Wi 1.01,2013-02-23 12:09:00,
2013-02-23 04:14:00,38.1,34.0,29.88,SW,215,3.0,7.6,85,0.00,,,-99.99,FreeWX-Wi 1.01,2013-02-23 12:14:00,
2013-02-23 04:19:00,38.1,34.0,29.88,SW,216,3.0,8.7,85,0.00,,,-99.99,FreeWX-Wi 1.01,2013-02-23 12:19:00,
2013-02-23 04:24:00,38.1,34.3,29.88,SW,216,3.0,6.3,86,0.00,,,-99.99,FreeWX-Wi 1.01,2013-02-23 12:24:00,
2013-02-23 04:29:00,38.1,34.3,29.88,SW,223,3.0,5.8,86,0.00,,,-99.99,FreeWX-Wi 1.01,2013-02-23 12:29:00,
2013-02-23 04:34:00,38.3,34.5,29.88,SW,220,3.0,5.8,86,0.00,,,-99.99,FreeWX-Wi 1.01,2013-02-23 12:34:00,
2013-02-23 04:39:00,38.3,34.5,29.88,SSW,210,3.0,6.3,86,0.00,,,-99.99,FreeWX-Wi 1.01,2013-02-23 12:39:00,
2013-02-23 04:44:00,38.3,34.5,29.88,SSW,202,3.0,5.4,86,0.00,,,-99.99,FreeWX-Wi 1.01,2013-02-23 12:44:00,
2013-02-23 04:49:00,38.1,34.3,29.88,SSW,199,3.0,8.3,86,0.00,,,-99.99,FreeWX-Wi 1.01,2013-02-23 12:49:00,
2013-02-23 04:54:00,38.1,34.3,29.88,SSW,197,3.0,6.3,86,0.00,,,-99.99,FreeWX-Wi 1.01,2013-02-23 12:54:00,
2013-02-23 04:59:00,38.1,34.3,29.88,SSW,193,3.0,5.4,86,0.00,,,-99.99,FreeWX-Wi 1.01,2013-02-23 12:59:00,
2013-02-23 05:04:00,38.1,34.3,29.88,SSW,195,3.0,6.3,86,0.00,,,-99.99,FreeWX-Wi 1.01,2013-02-23 13:04:00,
2013-02-23 05:09:00,38.1,34.5,29.88,SSW,196,3.0,7.6,87,0.00,,,-99.99,FreeWX-Wi 1.01,2013-02-23 13:09:00,
2013-02-23 05:14:00,38.3,34.7,29.88,SSW,196,3.0,7.2,87,0.00,,,-99.99,FreeWX-Wi 1.01,2013-02-23 13:14:00,
2013-02-23 05:19:00,38.5,34.9,29.88,SSW,195,3.0,5.8,87,0.00,,,-99.99,FreeWX-Wi 1.01,2013-02-23 13:19:00,
2013-02-23 05:24:00,38.5,34.9,29.88,SSW,198,3.0,5.4,87,0.00,,,-99.99,FreeWX-Wi 1.01,2013-02-23 13:24:00,
2013-02-23 05:29:00,38.5,34.9,29.91,SSW,197,3.0,5.4,87,0.00,,,-99.99,FreeWX-Wi 1.01,2013-02-23 13:29:00,
2013-02-23 05:34:00,38.7,35.1,29.91,SSW,198,3.0,4.0,87,0.00,,,-99.99,FreeWX-Wi 1.01,2013-02-23 13:34:00,
2013-02-23 05:39:00,38.7,35.1,29.91,SSW,198,3.0,8.7,87,0.00,,,-99.99,FreeWX-Wi 1.01,2013-02-23 13:39:00,
2013-02-23 05:44:00,38.7,35.1,29.91,SSW,198,3.0,7.2,87,0.00,,,-99.99,FreeWX-Wi 1.01,2013-02-23 13:44:00,
2013-02-23 05:49:00,38.7,35.1,29.91,SSW,202,3.0,5.8,87,0.00,,,-99.99,FreeWX-Wi 1.01,2013-02-23 13:49:00,
2013-02-23 05:54:00,38.7,35.1,29.91,SSW,203,2.0,4.9,87,0.00,,,-99.99,FreeWX-Wi 1.01,2013-02-23 13:54:00,
2013-02-23 05:59:00,38.5,34.9,29.91,SSW,202,3.0,5.8,87,0.00,,,-99.99,FreeWX-Wi 1.01,2013-02-23 13:59:00,
2013-02-23 06:04:00,38.7,35.1,29.91,SSW,202,3.0,6.7,87,0.00,,,-99.99,FreeWX-Wi 1.01,2013-02-23 14:04:00,
2013-02-23 06:09:00,38.7,35.1,29.91,SSW,203,2.0,7.6,87,0.00,,,-99.99,FreeWX-Wi 1.01,2013-02-23 14:09:00,
2013-02-23 06:14:00,38.7,35.1,29.91,SSW,207,2.0,4.5,87,0.00,,,-99.99,FreeWX-Wi 1.01,2013-02-23 14:14:00,
2013-02-23 06:19:00,38.8,35.6,29.91,SSW,204,2.0,6.3,88,0.00,,,-99.99,FreeWX-Wi 1.01,2013-02-23 14:19:00,
2013-02-23 06:24:00,38.8,35.6,29.91,SSW,199,2.0,5.8,88,0.00,,,-99.99,FreeWX-Wi 1.01,2013-02-23 14:24:00,
2013-02-23 06:29:00,38.8,35.6,29.94,SSW,199,2.0,4.9,88,0.00,,,-99.99,FreeWX-Wi 1.01,2013-02-23 14:29:00,
2013-02-23 06:34:00,38.8,35.6,29.94,SSW,204,2.0,4.9,88,0.00,,,-99.99,FreeWX-Wi 1.01,2013-02-23 14:34:00,
2013-02-23 06:39:00,38.8,35.6,29.94,SSW,205,2.0,4.9,88,0.00,,,-99.99,FreeWX-Wi 1.01,2013-02-23 14:39:00,
2013-02-23 06:44:00,38.8,35.6,29.94,SSW,202,1.0,3.1,88,0.00,,,-99.99,FreeWX-Wi 1.01,2013-02-23 14:44:00,
2013-02-23 06:49:00,39.0,35.8,29.94,SSW,206,1.0,4.0,88,0.00,,,-99.99,FreeWX-Wi 1.01,2013-02-23 14:49:00,
2013-02-23 06:54:00,39.0,35.8,29.94,SSW,211,1.0,3.6,88,0.00,,,-99.99,FreeWX-Wi 1.01,2013-02-23 14:54:00,
2013-02-23 06:59:00,39.2,35.6,29.94,SW,214,1.0,4.0,87,0.00,,,-99.99,FreeWX-Wi 1.01,2013-02-23 14:59:00,
2013-02-23 07:04:00,39.2,35.6,29.94,SSW,206,1.0,4.9,87,0.00,,,-99.99,FreeWX-Wi 1.01,2013-02-23 15:04:00,
2013-02-23 07:09:00,39.2,35.6,29.94,SSW,200,1.0,3.1,87,0.00,,,-99.99,FreeWX-Wi 1.01,2013-02-23 15:09:00,
2013-02-23 07:14:00,39.2,35.6,29.94,SSW,201,1.0,4.0,87,0.00,,,-99.99,FreeWX-Wi 1.01,2013-02-23 15:14:00,
2013-02-23 07:19:00,39.2,35.6,29.94,SSW,197,1.0,4.9,87,0.00,,,-99.99,FreeWX-Wi 1.01,2013-02-23 15:19:00,
2013-02-23 07:24:00,39.4,35.8,29.94,SSW,201,1.0,3.6,87,0.00,,,-99.99,FreeWX-Wi 1.01,2013-02-23 15:24:00,
2013-02-23 07:29:00,39.4,35.8,29.97,SSW,201,2.0,5.4,87,0.00,,,-99.99,FreeWX-Wi 1.01,2013-02-23 15:29:00,
2013-02-23 07:34:00,39.4,35.8,29.97,SSW,207,1.0,4.0,87,0.00,,,-99.99,FreeWX-Wi 1.01,2013-02-23 15:34:00,
2013-02-23 07:39:00,39.4,35.6,29.97,SSW,210,2.0,6.3,86,0.00,,,-99.99,FreeWX-Wi 1.01,2013-02-23 15:39:00,
2013-02-23 07:44:00,39.4,35.6,29.97,SSW,210,2.0,4.0,86,0.00,,,-99.99,FreeWX-Wi 1.01,2013-02-23 15:44:00,
2013-02-23 07:49:00,39.4,35.6,29.97,SSW,208,2.0,4.9,86,0.00,,,-99.99,FreeWX-Wi 1.01,2013-02-23 15:49:00,
2013-02-23 07:54:00,39.4,35.6,29.97,SSW,205,2.0,7.2,86,0.00,,,-99.99,FreeWX-Wi 1.01,2013-02-23 15:54:00,
2013-02-23 07:59:00,39.4,35.6,29.97,SSW,205,2.0,3.6,86,0.00,,,-99.99,FreeWX-Wi 1.01,2013-02-23 15:59:00,
2013-02-23 08:04:00,39.6,35.8,29.97,SSW,203,2.0,5.4,86,0.00,,,-99.99,FreeWX-Wi 1.01,2013-02-23 16:04:00,
2013-02-23 08:09:00,39.7,36.0,29.97,SSW,199,2.0,4.9,86,0.00,,,-99.99,FreeWX-Wi 1.01,2013-02-23 16:09:00,
2013-02-23 08:14:00,39.7,36.0,29.97,SSW,202,2.0,6.3,86,0.00,,,-99.99,FreeWX-Wi 1.01,2013-02-23 16:14:00,
2013-02-23 08:19:00,39.9,36.1,29.97,SSW,204,2.0,5.8,86,0.00,,,-99.99,FreeWX-Wi 1.01,2013-02-23 16:19:00,
2013-02-23 08:24:00,40.1,36.3,29.97,SSW,206,2.0,5.4,86,0.00,,,-99.99,FreeWX-Wi 1.01,2013-02-23 16:24:00,
2013-02-23 08:29:00,40.3,36.5,29.97,SSW,204,2.0,4.0,86,0.00,,,-99.99,FreeWX-Wi 1.01,2013-02-23 16:29:00,
2013-02-23 08:34:00,40.5,36.7,29.97,SSW,207,2.0,3.6,86,0.00,,,-99.99,FreeWX-Wi 1.01,2013-02-23 16:34:00,
2013-02-23 08:39:00,40.6,36.9,29.97,SSW,210,2.0,4.0,86,0.00,,,-99.99,FreeWX-Wi 1.01,2013-02-23 16:39:00,
2013-02-23 08:44:00,40.8,36.7,30.00,SSW,208,2.0,5.8,85,0.00,,,-99.99,FreeWX-Wi 1.01,2013-02-23 16:44:00,
2013-02-23 08:49:00,40.8,36.7,30.00,SSW,207,2.0,5.8,85,0.00,,,-99.99,FreeWX-Wi 1.01,2013-02-23 16:49:00,
2013-02-23 08:54:00,41.0,36.5,30.00,SSW,204,2.0,5.4,84,0.00,,,-99.99,FreeWX-Wi 1.01,2013-02-23 16:54:00,
2013-02-23 08:59:00,41.2,36.7,30.00,SSW,203,2.0,5.4,84,0.00,,,-99.99,FreeWX-Wi 1.01,2013-02-23 16:59:00,
2013-02-23 09:04:00,41.2,36.7,30.00,SSW,201,2.0,5.8,84,0.00,,,-99.99,FreeWX-Wi 1.01,2013-02-23 17:04:00,
2013-02-23 09:09:00,41.4,36.9,30.00,SSW,200,2.0,5.8,84,0.00,,,-99.99,FreeWX-Wi 1.01,2013-02-23 17:09:00,
2013-02-23 09:14:00,41.5,36.7,30.03,SSW,200,2.0,4.0,83,0.00,,,-99.99,FreeWX-Wi 1.01,2013-02-23 17:14:00,
2013-02-23 09:19:00,41.7,36.9,30.03,SSW,200,2.0,5.8,83,0.00,,,-99.99,FreeWX-Wi 1.01,2013-02-23 17:19:00,
2013-02-23 09:24:00,41.9,36.9,30.03,SSW,205,2.0,5.4,82,0.00,,,-99.99,FreeWX-Wi 1.01,2013-02-23 17:24:00,
2013-02-23 09:29:00,42.1,37.0,30.03,SSW,206,2.0,4.9,82,0.00,,,-99.99,FreeWX-Wi 1.01,2013-02-23 17:29:00,
2013-02-23 09:34:00,42.1,36.7,30.03,SSW,203,2.0,4.0,81,0.00,,,-99.99,FreeWX-Wi 1.01,2013-02-23 17:34:00,
2013-02-23 09:39:00,42.1,36.7,30.03,SSW,203,2.0,4.9,81,0.00,,,-99.99,FreeWX-Wi 1.01,2013-02-23 17:39:00,
2013-02-23 09:44:00,42.3,36.5,30.03,SSW,206,2.0,5.4,80,0.00,,,-99.99,FreeWX-Wi 1.01,2013-02-23 17:44:00,
2013-02-23 09:49:00,42.3,36.5,30.03,SSW,206,2.0,4.0,80,0.00,,,-99.99,FreeWX-Wi 1.01,2013-02-23 17:49:00,
2013-02-23 09:54:00,42.3,36.1,30.03,SSW,203,2.0,5.8,79,0.00,,,-99.99,FreeWX-Wi 1.01,2013-02-23 17:54:00,
2013-02-23 09:59:00,42.4,36.1,30.03,SSW,202,2.0,3.1,78,0.00,,,-99.99,FreeWX-Wi 1.01,2013-02-23 17:59:00,
2013-02-23 10:04:00,42.4,36.1,30.03,SSW,203,2.0,5.4,78,0.00,,,-99.99,FreeWX-Wi 1.01,2013-02-23 18:04:00,
2013-02-23 10:09:00,42.6,36.0,30.03,SSW,202,2.0,6.3,77,0.00,,,-99.99,FreeWX-Wi 1.01,2013-02-23 18:09:00,
2013-02-23 10:14:00,42.8,35.8,30.06,SSW,199,2.0,5.4,76,0.00,,,-99.99,FreeWX-Wi 1.01,2013-02-23 18:14:00,
2013-02-23 10:19:00,42.8,35.8,30.06,SSW,201,2.0,6.3,76,0.00,,,-99.99,FreeWX-Wi 1.01,2013-02-23 18:19:00,
2013-02-23 10:24:00,43.2,36.1,30.06,SSW,203,2.0,3.6,76,0.00,,,-99.99,FreeWX-Wi 1.01,2013-02-23 18:24:00,
2013-02-23 10:29:00,43.3,36.3,30.06,SW,214,2.0,3.6,76,0.00,,,-99.99,FreeWX-Wi 1.01,2013-02-23 18:29:00,
2013-02-23 10:34:00,43.3,36.3,30.06,SW,216,2.0,6.3,76,0.00,,,-99.99,FreeWX-Wi 1.01,2013-02-23 18:34:00,
2013-02-23 10:39:00,43.5,36.1,30.06,SW,220,2.0,5.4,75,0.00,,,-99.99,FreeWX-Wi 1.01,2013-02-23 18:39:00,
2013-02-23 10:44:00,43.7,36.3,30.06,SW,219,2.0,5.8,75,0.00,,,-99.99,FreeWX-Wi 1.01,2013-02-23 18:44:00,
2013-02-23 10:49:00,44.2,36.9,30.06,SW,216,2.0,4.5,75,0.00,,,-99.99,FreeWX-Wi 1.01,2013-02-23 18:49:00,
2013-02-23 10:54:00,45.0,36.9,30.06,SSW,207,2.0,5.4,73,0.00,,,-99.99,FreeWX-Wi 1.01,2013-02-23 18:54:00,
2013-02-23 10:59:00,45.3,36.9,30.06,SSW,200,2.0,4.9,72,0.00,,,-99.99,FreeWX-Wi 1.01,2013-02-23 18:59:00,
2013-02-23 11:04:00,45.5,36.0,30.06,SSW,192,2.0,8.1,69,0.00,,,-99.99,FreeWX-Wi 1.01,2013-02-23 19:04:00,
2013-02-23 11:09:00,45.5,35.6,30.06,South,187,2.0,8.1,68,0.00,,,-99.99,FreeWX-Wi 1.01,2013-02-23 19:09:00,
2013-02-23 11:14:00,45.7,35.4,30.06,South,184,2.0,6.3,67,0.00,,,-99.99,FreeWX-Wi 1.01,2013-02-23 19:14:00,
2013-02-23 11:19:00,45.7,35.4,30.06,South,183,3.0,5.4,67,0.00,,,-99.99,FreeWX-Wi 1.01,2013-02-23 19:19:00,
2013-02-23 11:24:00,46.4,36.5,30.06,South,176,3.0,3.6,68,0.00,,,-99.99,FreeWX-Wi 1.01,2013-02-23 19:24:00,
2013-02-23 11:29:00,48.0,37.2,30.09,South,172,3.0,5.8,66,0.00,,,-99.99,FreeWX-Wi 1.01,2013-02-23 19:29:00,
2013-02-23 11:34:00,48.7,36.3,30.09,South,175,2.0,6.3,62,0.00,,,-99.99,FreeWX-Wi 1.01,2013-02-23 19:34:00,
2013-02-23 11:39:00,48.4,34.7,30.09,South,170,2.0,4.0,59,0.00,,,-99.99,FreeWX-Wi 1.01,2013-02-23 19:39:00,
2013-02-23 11:44:00,48.0,34.3,30.09,South,169,2.0,5.4,59,0.00,,,-99.99,FreeWX-Wi 1.01,2013-02-23 19:44:00,
2013-02-23 11:49:00,47.8,34.7,30.09,SSE,166,2.0,4.0,60,0.00,,,-99.99,FreeWX-Wi 1.01,2013-02-23 19:49:00,
2013-02-23 11:54:00,47.8,34.7,30.09,South,169,2.0,5.8,60,0.00,,,-99.99,FreeWX-Wi 1.01,2013-02-23 19:54:00,
2013-02-23 11:59:00,48.2,35.1,30.09,South,177,2.0,5.8,60,0.00,,,-99.99,FreeWX-Wi 1.01,2013-02-23 19:59:00,
2013-02-23 12:04:00,48.2,34.5,30.09,South,172,1.0,4.9,59,0.00,,,-99.99,FreeWX-Wi 1.01,2013-02-23 20:04:00,
2013-02-23 12:09:00,48.2,34.5,30.09,South,169,1.0,4.0,59,0.00,,,-99.99,FreeWX-Wi 1.01,2013-02-23 20:09:00,
2013-02-23 12:14:00,48.2,34.5,30.09,South,179,1.0,6.3,59,0.00,,,-99.99,FreeWX-Wi 1.01,2013-02-23 20:14:00,
2013-02-23 12:19:00,48.0,34.0,30.09,South,186,1.0,4.9,58,0.00,,,-99.99,FreeWX-Wi 1.01,2013-02-23 20:19:00,
2013-02-23 12:24:00,48.2,34.2,30.09,South,186,1.0,4.9,58,0.00,,,-99.99,FreeWX-Wi 1.01,2013-02-23 20:24:00,
2013-02-23 12:29:00,47.8,33.8,30.09,South,169,1.0,3.6,58,0.00,,,-99.99,FreeWX-Wi 1.01,2013-02-23 20:29:00,
2013-02-23 12:34:00,48.2,34.2,30.09,SSE,166,1.0,3.1,58,0.00,,,-99.99,FreeWX-Wi 1.01,2013-02-23 20:34:00,
2013-02-23 12:39:00,48.9,34.9,30.09,South,170,1.0,4.9,58,0.00,,,-99.99,FreeWX-Wi 1.01,2013-02-23 20:39:00,
2013-02-23 12:44:00,49.3,34.7,30.09,SSE,157,1.0,3.1,57,0.00,,,-99.99,FreeWX-Wi 1.01,2013-02-23 20:44:00,
2013-02-23 12:49:00,49.3,34.3,30.09,SSE,159,1.0,5.4,56,0.00,,,-99.99,FreeWX-Wi 1.01,2013-02-23 20:49:00,
2013-02-23 12:54:00,49.1,33.6,30.09,South,170,2.0,4.9,55,0.00,,,-99.99,FreeWX-Wi 1.01,2013-02-23 20:54:00,
2013-02-23 13:00:00,49.5,34.3,30.09,South,184,2.0,4.0,56,0.00,,,-99.99,FreeWX-Wi 1.01,2013-02-23 21:00:00,
2013-02-23 13:05:00,49.6,33.6,30.09,SSW,198,1.0,4.9,54,0.00,,,-99.99,FreeWX-Wi 1.01,2013-02-23 21:05:00,
2013-02-23 13:10:00,49.8,33.4,30.09,SSW,196,2.0,4.0,53,0.00,,,-99.99,FreeWX-Wi 1.01,2013-02-23 21:10:00,
2013-02-23 13:15:00,49.6,33.6,30.09,SSW,199,1.0,3.1,54,0.00,,,-99.99,FreeWX-Wi 1.01,2013-02-23 21:15:00,
2013-02-23 13:20:00,49.8,32.9,30.09,SSW,194,1.0,4.0,52,0.00,,,-99.99,FreeWX-Wi 1.01,2013-02-23 21:20:00,
2013-02-23 13:25:00,49.5,33.1,30.09,South,186,1.0,3.6,53,0.00,,,-99.99,FreeWX-Wi 1.01,2013-02-23 21:25:00,
2013-02-23 13:30:00,49.3,32.9,30.09,South,178,1.0,4.0,53,0.00,,,-99.99,FreeWX-Wi 1.01,2013-02-23 21:30:00,
2013-02-23 13:35:00,49.6,33.6,30.09,SSE,160,1.0,2.7,54,0.00,,,-99.99,FreeWX-Wi 1.01,2013-02-23 21:35:00,
2013-02-23 13:40:00,50.5,34.0,30.09,SSE,159,1.0,4.0,53,0.00,,,-99.99,FreeWX-Wi 1.01,2013-02-23 21:40:00,
2013-02-23 13:45:00,50.7,33.3,30.09,SSE,166,1.0,5.8,51,0.00,,,-99.99,FreeWX-Wi 1.01,2013-02-23 21:45:00,
2013-02-23 13:50:00,50.4,32.9,30.09,South,172,1.0,3.1,51,0.00,,,-99.99,FreeWX-Wi 1.01,2013-02-23 21:50:00,
2013-02-23 13:55:00,50.0,32.5,30.09,SSE,154,1.0,2.2,51,0.00,,,-99.99,FreeWX-Wi 1.01,2013-02-23 21:55:00,
2013-02-23 14:00:00,50.0,33.1,30.09,SSE,152,1.0,2.7,52,0.00,,,-99.99,FreeWX-Wi 1.01,2013-02-23 22:00:00,
2013-02-23 14:05:00,49.8,32.9,30.09,SSE,158,1.0,2.7,52,0.00,,,-99.99,FreeWX-Wi 1.01,2013-02-23 22:05:00,
2013-02-23 14:10:00,49.6,32.2,30.09,North,-999,0.0,2.7,51,0.00,,,-99.99,FreeWX-Wi 1.01,2013-02-23 22:10:00,
2013-02-23 14:15:00,49.6,32.7,30.09,North,-999,0.0,2.7,52,0.00,,,-99.99,FreeWX-Wi 1.01,2013-02-23 22:15:00,
2013-02-23 14:20:00,49.5,33.1,30.09,North,-999,0.0,2.7,53,0.00,,,-99.99,FreeWX-Wi 1.01,2013-02-23 22:20:00,
2013-02-23 14:25:00,49.6,33.3,30.09,North,-999,0.0,2.7,53,0.00,,,-99.99,FreeWX-Wi 1.01,2013-02-23 22:25:00,
2013-02-23 14:30:00,49.6,32.7,30.12,North,-999,0.0,2.2,52,0.00,,,-99.99,FreeWX-Wi 1.01,2013-02-23 22:30:00,
2013-02-23 14:35:00,49.6,31.8,30.12,North,-999,0.0,2.2,50,0.00,,,-99.99,FreeWX-Wi 1.01,2013-02-23 22:35:00,
2013-02-23 14:40:00,49.8,32.4,30.12,North,-999,0.0,3.1,51,0.00,,,-99.99,FreeWX-Wi 1.01,2013-02-23 22:40:00,
2013-02-23 14:45:00,49.8,32.4,30.12,North,-999,0.0,2.2,51,0.00,,,-99.99,FreeWX-Wi 1.01,2013-02-23 22:45:00,
2013-02-23 14:50:00,49.8,32.0,30.12,North,-999,0.0,2.7,50,0.00,,,-99.99,FreeWX-Wi 1.01,2013-02-23 22:50:00,
2013-02-23 14:55:00,49.5,31.6,30.12,North,-999,0.0,3.6,50,0.00,,,-99.99,FreeWX-Wi 1.01,2013-02-23 22:55:00,
2013-02-23 15:00:00,48.9,31.6,30.12,North,-999,0.0,5.8,51,0.00,,,-99.99,FreeWX-Wi 1.01,2013-02-23 23:00:00,
2013-02-23 15:05:00,48.4,31.6,30.12,North,-999,0.0,4.5,52,0.00,,,-99.99,FreeWX-Wi 1.01,2013-02-23 23:05:00,
2013-02-23 15:10:00,48.0,31.3,30.12,ENE,74,1.0,5.8,52,0.00,,,-99.99,FreeWX-Wi 1.01,2013-02-23 23:10:00,
2013-02-23 15:15:00,47.8,31.5,30.12,ENE,62,1.0,4.0,53,0.00,,,-99.99,FreeWX-Wi 1.01,2013-02-23 23:15:00,
2013-02-23 15:20:00,47.5,31.3,30.12,ENE,60,1.0,5.8,53,0.00,,,-99.99,FreeWX-Wi 1.01,2013-02-23 23:20:00,
2013-02-23 15:25:00,47.5,31.3,30.12,ENE,61,1.0,4.9,53,0.00,,,-99.99,FreeWX-Wi 1.01,2013-02-23 23:25:00,
2013-02-23 15:30:00,47.5,31.3,30.12,ENE,59,1.0,2.2,53,0.00,,,-99.99,FreeWX-Wi 1.01,2013-02-23 23:30:00,
2013-02-23 15:35:00,47.5,31.3,30.12,NE,50,1.0,2.7,53,0.00,,,-99.99,FreeWX-Wi 1.01,2013-02-23 23:35:00,
2013-02-23 15:40:00,47.5,31.6,30.12,NE,56,1.0,3.6,54,0.00,,,-99.99,FreeWX-Wi 1.01,2013-02-23 23:40:00,
2013-02-23 15:45:00,47.3,31.5,30.12,NE,55,1.0,4.0,54,0.00,,,-99.99,FreeWX-Wi 1.01,2013-02-23 23:45:00,
2013-02-23 15:50:00,47.3,32.0,30.12,North,-999,0.0,0.0,55,0.00,,,-99.99,FreeWX-Wi 1.01,2013-02-23 23:50:00,
2013-02-23 15:55:00,47.1,32.2,30.12,North,-999,0.0,2.2,56,0.00,,,-99.99,FreeWX-Wi 1.01,2013-02-23 23:55:00,
2013-02-23 16:00:00,46.9,32.5,30.12,North,-999,0.0,0.0,57,0.00,,,-99.99,FreeWX-Wi 1.01,2013-02-24 00:00:00,
2013-02-23 16:05:00,46.8,32.4,30.12,North,-999,0.0,0.0,57,0.00,,,-99.99,FreeWX-Wi 1.01,2013-02-24 00:05:00,
2013-02-23 16:10:00,46.6,32.5,30.15,North,-999,0.0,0.0,58,0.00,,,-99.99,FreeWX-Wi 1.01,2013-02-24 00:10:00,
2013-02-23 16:15:00,46.4,32.4,30.15,North,-999,0.0,0.0,58,0.00,,,-99.99,FreeWX-Wi 1.01,2013-02-24 00:15:00,
2013-02-23 16:20:00,46.2,33.1,30.15,North,-999,0.0,0.0,60,0.00,,,-99.99,FreeWX-Wi 1.01,2013-02-24 00:20:00,
2013-02-23 16:25:00,46.2,33.4,30.15,North,-999,0.0,0.0,61,0.00,,,-99.99,FreeWX-Wi 1.01,2013-02-24 00:25:00,
2013-02-23 16:30:00,46.0,33.4,30.15,North,-999,0.0,4.9,61,0.00,,,-99.99,FreeWX-Wi 1.01,2013-02-24 00:30:00,
2013-02-23 16:35:00,45.9,33.3,30.15,North,-999,0.0,3.1,61,0.00,,,-99.99,FreeWX-Wi 1.01,2013-02-24 00:35:00,
2013-02-23 16:40:00,45.1,33.3,30.15,North,-999,0.0,4.0,63,0.00,,,-99.99,FreeWX-Wi 1.01,2013-02-24 00:40:00,
2013-02-23 16:45:00,44.6,33.6,30.15,North,-999,0.0,3.1,65,0.00,,,-99.99,FreeWX-Wi 1.01,2013-02-24 00:45:00,
2013-02-23 16:50:00,43.9,33.6,30.15,North,-999,0.0,2.7,67,0.00,,,-99.99,FreeWX-Wi 1.01,2013-02-24 00:50:00,
2013-02-23 16:55:00,43.5,34.0,30.15,North,-999,0.0,0.0,69,0.00,,,-99.99,FreeWX-Wi 1.01,2013-02-24 00:55:00,
2013-02-23 17:00:00,43.3,34.2,30.15,North,-999,0.0,2.7,70,0.00,,,-99.99,FreeWX-Wi 1.01,2013-02-24 01:00:00,
2013-02-23 17:05:00,43.0,34.9,30.15,North,-999,0.0,3.1,73,0.00,,,-99.99,FreeWX-Wi 1.01,2013-02-24 01:05:00,
2013-02-23 17:10:00,42.6,34.9,30.15,North,-999,0.0,3.1,74,0.00,,,-99.99,FreeWX-Wi 1.01,2013-02-24 01:10:00,
2013-02-23 17:15:00,42.3,34.9,30.15,SW,215,1.0,3.1,75,0.00,,,-99.99,FreeWX-Wi 1.01,2013-02-24 01:15:00,
2013-02-23 17:20:00,42.1,35.1,30.15,SSW,210,1.0,4.0,76,0.00,,,-99.99,FreeWX-Wi 1.01,2013-02-24 01:20:00,
2013-02-23 17:25:00,41.9,34.9,30.15,SSW,206,1.0,2.7,76,0.00,,,-99.99,FreeWX-Wi 1.01,2013-02-24 01:25:00,
2013-02-23 17:30:00,41.7,34.7,30.15,SSW,199,1.0,0.0,76,0.00,,,-99.99,FreeWX-Wi 1.01,2013-02-24 01:30:00,
2013-02-23 17:35:00,41.7,35.1,30.15,SSW,202,1.0,0.0,77,0.00,,,-99.99,FreeWX-Wi 1.01,2013-02-24 01:35:00,
2013-02-23 17:40:00,41.7,35.1,30.18,North,-999,0.0,3.6,77,0.00,,,-99.99,FreeWX-Wi 1.01,2013-02-24 01:40:00,
2013-02-23 17:45:00,41.5,35.2,30.18,North,-999,0.0,6.3,78,0.00,,,-99.99,FreeWX-Wi 1.01,2013-02-24 01:45:00,
2013-02-23 17:50:00,41.5,35.6,30.18,SSW,203,1.0,5.4,79,0.00,,,-99.99,FreeWX-Wi 1.01,2013-02-24 01:50:00,
2013-02-23 17:55:00,41.5,35.8,30.18,SSW,202,1.0,6.3,80,0.00,,,-99.99,FreeWX-Wi 1.01,2013-02-24 01:55:00,
2013-02-23 18:00:00,41.5,36.1,30.18,SSW,198,2.0,5.4,81,0.00,,,-99.99,FreeWX-Wi 1.01,2013-02-24 02:00:00,
2013-02-23 18:05:00,41.4,36.3,30.18,SSW,195,2.0,3.6,82,0.00,,,-99.99,FreeWX-Wi 1.01,2013-02-24 02:05:00,
2013-02-23 18:10:00,41.2,36.1,30.18,SSW,196,2.0,4.0,82,0.00,,,-99.99,FreeWX-Wi 1.01,2013-02-24 02:10:00,
2013-02-23 18:15:00,41.2,36.5,30.18,South,189,2.0,4.0,83,0.00,,,-99.99,FreeWX-Wi 1.01,2013-02-24 02:15:00,
2013-02-23 18:20:00,41.2,36.7,30.18,South,183,1.0,0.0,84,0.00,,,-99.99,FreeWX-Wi 1.01,2013-02-24 02:20:00,
2013-02-23 18:25:00,41.0,36.5,30.18,South,183,1.0,2.7,84,0.00,,,-99.99,FreeWX-Wi 1.01,2013-02-24 02:25:00,
2013-02-23 18:30:00,41.0,36.5,30.18,North,-999,0.0,3.1,84,0.00,,,-99.99,FreeWX-Wi 1.01,2013-02-24 02:30:00,
2013-02-23 18:35:00,41.0,36.9,30.18,North,-999,0.0,2.7,85,0.00,,,-99.99,FreeWX-Wi 1.01,2013-02-24 02:35:00,
2013-02-23 18:40:00,41.0,36.9,30.21,North,-999,0.0,4.0,85,0.00,,,-99.99,FreeWX-Wi 1.01,2013-02-24 02:40:00,
2013-02-23 18:45:00,40.8,37.0,30.21,North,-999,0.0,4.0,86,0.00,,,-99.99,FreeWX-Wi 1.01,2013-02-24 02:45:00,
2013-02-23 18:50:00,40.8,37.0,30.21,SSW,207,1.0,4.9,86,0.00,,,-99.99,FreeWX-Wi 1.01,2013-02-24 02:50:00,
2013-02-23 18:55:00,40.6,37.0,30.21,SSW,206,1.0,3.6,87,0.04,,,-99.99,FreeWX-Wi 1.01,2013-02-24 02:55:00,
2013-02-23 19:00:00,40.6,37.0,30.21,SSW,208,1.0,3.6,87,0.04,,,-99.99,FreeWX-Wi 1.01,2013-02-24 03:00:00,
2013-02-23 19:05:00,40.6,37.4,30.21,SSW,207,2.0,5.4,88,0.04,,,-99.99,FreeWX-Wi 1.01,2013-02-24 03:05:00,
2013-02-23 19:10:00,40.6,37.4,30.21,SSW,202,2.0,4.0,88,0.04,,,-99.99,FreeWX-Wi 1.01,2013-02-24 03:10:00,
2013-02-23 19:15:00,40.5,37.4,30.21,SSW,199,2.0,4.0,89,0.04,,,-99.99,FreeWX-Wi 1.01,2013-02-24 03:15:00,
2013-02-23 19:20:00,40.5,37.8,30.21,SSW,202,1.0,3.6,90,0.04,,,-99.99,FreeWX-Wi 1.01,2013-02-24 03:20:00,
2013-02-23 19:25:00,40.3,37.6,30.21,SSW,204,2.0,5.4,90,0.04,,,-99.99,FreeWX-Wi 1.01,2013-02-24 03:25:00,
2013-02-23 19:30:00,40.3,37.9,30.21,SSW,205,2.0,4.9,91,0.04,,,-99.99,FreeWX-Wi 1.01,2013-02-24 03:30:00,
2013-02-23 19:35:00,40.1,37.9,30.21,SSW,205,2.0,7.6,92,0.04,,,-99.99,FreeWX-Wi 1.01,2013-02-24 03:35:00,
2013-02-23 19:40:00,39.9,37.8,30.21,SSW,203,2.0,5.8,92,0.04,,,-99.99,FreeWX-Wi 1.01,2013-02-24 03:40:00,
2013-02-23 19:45:00,39.9,38.1,30.21,SSW,201,2.0,5.8,93,0.08,,,-99.99,FreeWX-Wi 1.01,2013-02-24 03:45:00,
2013-02-23 19:50:00,39.9,38.1,30.21,SSW,197,3.0,4.0,93,0.08,,,-99.99,FreeWX-Wi 1.01,2013-02-24 03:50:00,
2013-02-23 19:55:00,39.9,38.3,30.24,SSW,193,2.0,4.0,94,0.04,,,-99.99,FreeWX-Wi 1.01,2013-02-24 03:55:00,
2013-02-23 20:00:00,39.7,38.1,30.24,South,190,2.0,5.4,94,0.04,,,-99.99,FreeWX-Wi 1.01,2013-02-24 04:00:00,
2013-02-23 20:05:00,39.7,38.5,30.24,South,191,2.0,6.3,95,0.04,,,-99.99,FreeWX-Wi 1.01,2013-02-24 04:05:00,
2013-02-23 20:10:00,39.6,38.3,30.24,SSW,192,2.0,6.3,95,0.12,,,-99.99,FreeWX-Wi 1.01,2013-02-24 04:10:00,
2013-02-23 20:15:00,39.4,38.1,30.24,SSW,195,3.0,6.3,95,0.12,,,-99.99,FreeWX-Wi 1.01,2013-02-24 04:15:00,
2013-02-23 20:20:00,39.4,38.3,30.24,SSW,197,3.0,8.1,96,0.12,,,-99.99,FreeWX-Wi 1.01,2013-02-24 04:20:00,
2013-02-23 20:25:00,39.2,38.1,30.24,SSW,204,3.0,4.9,96,0.12,,,-99.99,FreeWX-Wi 1.01,2013-02-24 04:25:00,
2013-02-23 20:30:00,39.2,38.5,30.24,SSW,205,3.0,4.9,97,0.12,,,-99.99,FreeWX-Wi 1.01,2013-02-24 04:30:00,
2013-02-23 20:35:00,39.2,38.5,30.24,SSW,204,3.0,6.3,97,0.16,,,-99.99,FreeWX-Wi 1.01,2013-02-24 04:35:00,
2013-02-23 20:40:00,39.0,38.3,30.24,SSW,206,3.0,5.8,97,0.16,,,-99.99,FreeWX-Wi 1.01,2013-02-24 04:40:00,
2013-02-23 20:45:00,39.0,38.5,30.24,SSW,208,3.0,4.9,98,0.12,,,-99.99,FreeWX-Wi 1.01,2013-02-24 04:45:00,
2013-02-23 20:50:00,38.8,38.3,30.24,SSW,208,3.0,5.8,98,0.12,,,-99.99,FreeWX-Wi 1.01,2013-02-24 04:50:00,
2013-02-23 20:55:00,38.7,38.1,30.24,SSW,207,3.0,5.4,98,0.12,,,-99.99,FreeWX-Wi 1.01,2013-02-24 04:55:00,
2013-02-23 21:00:00,38.8,38.3,30.24,SSW,210,2.0,2.7,98,0.16,,,-99.99,FreeWX-Wi 1.01,2013-02-24 05:00:00,
2013-02-23 21:05:00,38.8,38.3,30.24,SSW,212,2.0,3.1,98,0.16,,,-99.99,FreeWX-Wi 1.01,2013-02-24 05:05:00,
2013-02-23 21:10:00,38.8,38.3,30.24,SSW,211,1.0,0.0,98,0.08,,,-99.99,FreeWX-Wi 1.01,2013-02-24 05:10:00,
2013-02-23 21:15:00,38.8,38.3,30.24,SSW,210,1.0,0.0,98,0.08,,,-99.99,FreeWX-Wi 1.01,2013-02-24 05:15:00,
2013-02-23 21:20:00,38.8,38.3,30.24,North,-999,0.0,0.0,98,0.08,,,-99.99,FreeWX-Wi 1.01,2013-02-24 05:20:00,
2013-02-23 21:25:00,38.8,38.3,30.24,North,-999,0.0,0.0,98,0.08,,,-99.99,FreeWX-Wi 1.01,2013-02-24 05:25:00,
2013-02-23 21:30:00,39.0,38.5,30.24,North,-999,0.0,0.0,98,0.04,,,-99.99,FreeWX-Wi 1.01,2013-02-24 05:30:00,
2013-02-23 21:35:00,39.0,38.5,30.24,North,-999,0.0,0.0,98,0.04,,,-99.99,FreeWX-Wi 1.01,2013-02-24 05:35:00,
2013-02-23 21:40:00,38.8,38.3,30.24,North,-999,0.0,2.2,98,0.04,,,-99.99,FreeWX-Wi 1.01,2013-02-24 05:40:00,
2013-02-23 21:45:00,38.8,38.3,30.24,North,-999,0.0,2.7,98,0.04,,,-99.99,FreeWX-Wi 1.01,2013-02-24 05:45:00,
2013-02-23 21:50:00,38.8,38.3,30.24,North,-999,0.0,2.2,98,0.04,,,-99.99,FreeWX-Wi 1.01,2013-02-24 05:50:00,
2013-02-23 21:55:00,38.8,38.3,30.24,North,-999,0.0,2.2,98,0.04,,,-99.99,FreeWX-Wi 1.01,2013-02-24 05:55:00,
2013-02-23 22:00:00,38.8,38.3,30.24,North,-999,0.0,3.1,98,0.00,,,-99.99,FreeWX-Wi 1.01,2013-02-24 06:00:00,
2013-02-23 22:05:00,38.8,38.3,30.24,North,-999,0.0,4.9,98,0.00,,,-99.99,FreeWX-Wi 1.01,2013-02-24 06:05:00,
2013-02-23 22:10:00,38.7,38.1,30.24,SSW,211,1.0,3.6,98,0.00,,,-99.99,FreeWX-Wi 1.01,2013-02-24 06:10:00,
2013-02-23 22:15:00,38.7,38.1,30.24,SSW,211,1.0,4.9,98,0.00,,,-99.99,FreeWX-Wi 1.01,2013-02-24 06:15:00,
2013-02-23 22:20:00,38.7,38.1,30.24,SSW,211,1.0,4.0,98,0.00,,,-99.99,FreeWX-Wi 1.01,2013-02-24 06:20:00,
2013-02-23 22:25:00,38.7,38.1,30.24,SSW,210,2.0,4.9,98,0.00,,,-99.99,FreeWX-Wi 1.01,2013-02-24 06:25:00,
2013-02-23 22:30:00,38.5,37.9,30.24,SSW,210,2.0,3.1,98,0.00,,,-99.99,FreeWX-Wi 1.01,2013-02-24 06:30:00,
2013-02-23 22:35:00,38.5,37.9,30.24,SSW,209,2.0,4.0,98,0.00,,,-99.99,FreeWX-Wi 1.01,2013-02-24 06:35:00,
2013-02-23 22:40:00,38.5,37.9,30.24,SSW,201,1.0,2.2,98,0.00,,,-99.99,FreeWX-Wi 1.01,2013-02-24 06:40:00,
2013-02-23 22:45:00,38.5,37.9,30.24,SSW,196,1.0,2.7,98,0.00,,,-99.99,FreeWX-Wi 1.01,2013-02-24 06:45:00,
2013-02-23 22:50:00,38.3,37.8,30.24,SSW,195,1.0,3.6,98,0.00,,,-99.99,FreeWX-Wi 1.01,2013-02-24 06:50:00,
2013-02-23 22:55:00,38.3,37.8,30.24,SSW,196,1.0,3.6,98,0.00,,,-99.99,FreeWX-Wi 1.01,2013-02-24 06:55:00,
2013-02-23 23:00:00,38.3,37.8,30.24,South,188,1.0,4.0,98,0.00,,,-99.99,FreeWX-Wi 1.01,2013-02-24 07:00:00,
2013-02-23 23:05:00,38.3,37.8,30.24,North,-999,0.0,2.2,98,0.00,,,-99.99,FreeWX-Wi 1.01,2013-02-24 07:05:00,
2013-02-23 23:10:00,38.3,37.8,30.27,South,188,1.0,3.6,98,0.00,,,-99.99,FreeWX-Wi 1.01,2013-02-24 07:10:00,
2013-02-23 23:15:00,38.3,37.8,30.27,SSW,193,1.0,4.0,98,0.00,,,-99.99,FreeWX-Wi 1.01,2013-02-24 07:15:00,
2013-02-23 23:20:00,38.3,37.8,30.27,SSW,193,1.0,4.0,98,0.00,,,-99.99,FreeWX-Wi 1.01,2013-02-24 07:20:00,
2013-02-23 23:25:00,38.3,37.8,30.27,SSW,193,1.0,4.0,98,0.00,,,-99.99,FreeWX-Wi 1.01,2013-02-24 07:25:00,
2013-02-23 23:30:00,38.3,37.8,30.27,SSW,195,1.0,4.0,98,0.00,,,-99.99,FreeWX-Wi 1.01,2013-02-24 07:30:00,
2013-02-23 23:35:00,38.3,37.8,30.27,SSW,195,1.0,0.0,98,0.00,,,-99.99,FreeWX-Wi 1.01,2013-02-24 07:35:00,
2013-02-23 23:40:00,38.3,37.8,30.27,North,-999,0.0,0.0,98,0.00,,,-99.99,FreeWX-Wi 1.01,2013-02-24 07:40:00,
2013-02-23 23:45:00,38.3,37.8,30.27,North,-999,0.0,3.1,98,0.00,,,-99.99,FreeWX-Wi 1.01,2013-02-24 07:45:00,
2013-02-23 23:50:00,38.3,37.8,30.27,North,-999,0.0,2.7,98,0.00,,,-99.99,FreeWX-Wi 1.01,2013-02-24 07:50:00,
2013-02-23 23:55:00,38.1,37.6,30.27,North,-999,0.0,2.7,98,0.00,,,-99.99,FreeWX-Wi 1.01,2013-02-24 07:55:00,